Time;durP1;ratioP1;P1;durP2;ratioP2;P2;SDS_P1;SDS_P2;PMS_P1;PMS_P2;Temp;Humidity;BMP_temperature;BMP_pressure;BME280_temperature;BME280_humidity;BME280_pressure;Samples;Min_cycle;Max_cycle;Signal;HPM_P1;HPM_P2
2022/03/02 00:02:52;;;;;;;;;;;;;;;-3.03;100.00;99430.25;10286222;28;19928;-76
2022/03/02 00:07:53;;;;;;;;;;;;;;;-3.19;100.00;99427.06;10280843;28;20030;-78
2022/03/02 00:12:54;;;;;;;;;;;;;;;-3.29;100.00;99424.06;10293041;28;20014;-80
2022/03/02 00:17:56;;;;;;;;;;;;;;;-3.33;100.00;99424.66;10282684;28;20021;-78
2022/03/02 00:22:58;;;;;;;;;;;;;;;-3.44;100.00;99407.72;10292049;28;19937;-77
2022/03/02 00:27:58;;;;;;;;;;;;;;;-3.54;100.00;99397.66;10280191;28;20349;-78
2022/03/02 00:33:02;;;;;;;;;;;;;;;-3.66;100.00;99396.63;10284507;28;19938;-77
2022/03/02 00:38:03;;;;;;;;;;;;;;;-3.73;100.00;99388.78;10289654;28;19981;-78
2022/03/02 00:43:03;;;;;;;;;;;;;;;-3.88;100.00;99376.88;10278577;28;19937;-78
2022/03/02 00:48:05;;;;;;;;;;;;;;;-3.90;100.00;99373.66;10288822;28;19937;-78
2022/03/02 00:53:06;;;;;;;;;;;;;;;-3.69;100.00;99375.25;10290145;28;19962;-78
2022/03/02 00:58:07;;;;;;;;;;;;;;;-3.64;100.00;99378.91;10292055;28;19926;-78
2022/03/02 01:03:07;;;;;;;;;;;;;;;-3.78;100.00;99383.31;10291797;28;19930;-77
2022/03/02 01:08:08;;;;;;;;;;;;;;;-3.71;100.00;99385.97;10306879;28;19926;-79
2022/03/02 01:13:08;;;;;;;;;;;;;;;-3.36;100.00;99396.22;10282523;28;19940;-78
2022/03/02 01:18:08;;;;;;;;;;;;;;;-3.36;100.00;99399.63;10289730;28;20390;-78
2022/03/02 01:23:09;;;;;;;;;;;;;;;-3.45;100.00;99387.75;10283097;28;20036;-76
2022/03/02 01:28:09;;;;;;;;;;;;;;;-3.42;100.00;99376.81;10282263;28;19990;-78
2022/03/02 01:33:10;;;;;;;;;;;;;;;-3.65;100.00;99369.41;10278300;28;19938;-76
2022/03/02 01:38:10;;;;;;;;;;;;;;;-3.58;100.00;99370.19;10285894;28;19937;-76
2022/03/02 01:43:11;;;;;;;;;;;;;;;-3.70;100.00;99363.97;10277814;28;20377;-77
2022/03/02 01:48:12;;;;;;;;;;;;;;;-3.72;100.00;99352.88;10263017;28;19941;-76
2022/03/02 01:53:12;;;;;;;;;;;;;;;-3.88;100.00;99343.59;10295877;28;19922;-79
2022/03/02 01:58:13;;;;;;;;;;;;;;;-3.96;100.00;99335.94;10322568;28;19917;-81
2022/03/02 02:03:13;;;;;;;;;;;;;;;-3.95;100.00;99334.13;10342531;28;19914;-77
2022/03/02 02:08:14;;;;;;;;;;;;;;;-3.87;100.00;99326.84;10317237;28;19914;-78
2022/03/02 02:13:14;;;;;;;;;;;;;;;-3.81;100.00;99328.66;10306581;28;20017;-77
2022/03/02 02:18:14;;;;;;;;;;;;;;;-3.66;100.00;99332.88;10257141;28;19930;-78
2022/03/02 02:23:15;;;;;;;;;;;;;;;-3.53;100.00;99331.03;10282351;28;19938;-77
2022/03/02 02:28:21;;;;;;;;;;;;;;;-3.51;100.00;99333.44;10275520;28;19961;-76
2022/03/02 02:33:22;;;;;;;;;;;;;;;-3.63;100.00;99338.53;10256144;28;19988;-76
2022/03/02 02:38:23;;;;;;;;;;;;;;;-3.74;100.00;99328.66;10285326;28;19934;-77
2022/03/02 02:43:24;;;;;;;;;;;;;;;-3.67;100.00;99328.63;10266632;28;19930;-76
2022/03/02 02:48:24;;;;;;;;;;;;;;;-3.76;100.00;99326.22;10286111;28;19914;-78
2022/03/02 02:53:25;;;;;;;;;;;;;;;-3.78;100.00;99333.50;10312487;28;20393;-77
2022/03/02 02:58:25;;;;;;;;;;;;;;;-3.81;100.00;99326.03;10279595;28;20361;-77
2022/03/02 03:03:26;;;;;;;;;;;;;;;-3.90;100.00;99324.66;10287804;28;19938;-76
2022/03/02 03:08:26;;;;;;;;;;;;;;;-3.80;100.00;99319.78;10334211;28;19922;-79
2022/03/02 03:13:27;;;;;;;;;;;;;;;-3.79;100.00;99325.84;10334392;28;19937;-76
2022/03/02 03:18:27;;;;;;;;;;;;;;;-3.67;100.00;99323.38;10304236;28;19985;-77
2022/03/02 03:23:28;;;;;;;;;;;;;;;-3.77;100.00;99319.38;10301402;28;19930;-76
2022/03/02 03:28:29;;;;;;;;;;;;;;;-3.74;100.00;99316.34;10282690;28;19930;-77
2022/03/02 03:33:29;;;;;;;;;;;;;;;-3.84;100.00;99296.78;10314754;28;20289;-77
2022/03/02 03:38:29;;;;;;;;;;;;;;;-3.94;100.00;99296.41;10275146;28;20046;-77
2022/03/02 03:43:30;;;;;;;;;;;;;;;-3.92;100.00;99299.63;10277020;28;19926;-78
2022/03/02 03:48:30;;;;;;;;;;;;;;;-4.19;100.00;99283.94;10297831;28;20330;-78
2022/03/02 03:53:31;;;;;;;;;;;;;;;-4.15;100.00;99284.31;10265165;28;19932;-77
2022/03/02 03:58:31;;;;;;;;;;;;;;;-4.03;100.00;99280.88;10279966;28;20390;-77
2022/03/02 04:03:34;;;;;;;;;;;;;;;-4.07;100.00;99258.72;10296098;28;20376;-79
2022/03/02 04:08:34;;;;;;;;;;;;;;;-3.77;100.00;99261.66;10271491;28;19941;-78
2022/03/02 04:13:36;;;;;;;;;;;;;;;-3.84;100.00;99265.31;10245292;28;20053;-77
2022/03/02 04:18:37;;;;;;;;;;;;;;;-3.88;100.00;99248.38;10300859;28;20346;-78
2022/03/02 04:23:39;;;;;;;;;;;;;;;-3.94;100.00;99236.09;10275751;28;20009;-78
2022/03/02 04:28:41;;;;;;;;;;;;;;;-3.90;100.00;99235.47;10286703;28;20389;-77
2022/03/02 04:33:41;;;;;;;;;;;;;;;-3.85;100.00;99226.97;10278564;28;19937;-78
2022/03/02 04:38:42;;;;;;;;;;;;;;;-3.85;100.00;99222.53;10272589;28;20129;-77
2022/03/02 04:43:43;;;;;;;;;;;;;;;-3.69;100.00;99217.88;10275562;28;19941;-78
2022/03/02 04:48:44;;;;;;;;;;;;;;;-3.59;100.00;99221.66;10289231;28;20288;-78
2022/03/02 04:53:44;;;;;;;;;;;;;;;-3.32;100.00;99227.59;10280138;28;20029;-78
2022/03/02 04:58:45;;;;;;;;;;;;;;;-3.20;100.00;99236.44;10284303;28;19990;-79
2022/03/02 05:03:46;;;;;;;;;;;;;;;-3.23;100.00;99222.91;10276354;28;19934;-77
2022/03/02 05:08:46;;;;;;;;;;;;;;;-3.51;100.00;99224.03;10277001;28;20468;-77
2022/03/02 05:13:47;;;;;;;;;;;;;;;-3.44;100.00;99230.06;10278921;28;19938;-77
2022/03/02 05:18:47;;;;;;;;;;;;;;;-3.42;100.00;99221.19;10236211;28;20029;-77
2022/03/02 05:23:48;;;;;;;;;;;;;;;-3.30;100.00;99225.56;10267452;28;19930;-76
2022/03/02 05:28:48;;;;;;;;;;;;;;;-3.28;100.00;99220.94;10278980;28;20025;-77
2022/03/02 05:33:51;;;;;;;;;;;;;;;-3.28;100.00;99226.19;10289256;28;19930;-78
2022/03/02 05:38:53;;;;;;;;;;;;;;;-3.15;100.00;99228.72;10282809;28;20760;-77
2022/03/02 05:43:55;;;;;;;;;;;;;;;-3.09;100.00;99221.03;10268085;28;20041;-76
2022/03/02 05:48:55;;;;;;;;;;;;;;;-3.12;100.00;99226.69;10241896;28;20717;-79
2022/03/02 05:53:58;;;;;;;;;;;;;;;-3.04;100.00;99231.69;10276664;28;19926;-76
2022/03/02 05:58:59;;;;;;;;;;;;;;;-3.02;100.00;99225.19;10300488;28;19930;-76
2022/03/02 06:04:01;;;;;;;;;;;;;;;-2.89;100.00;99229.59;10267728;28;19938;-81
2022/03/02 06:09:03;;;;;;;;;;;;;;;-2.88;100.00;99234.63;10296557;28;19930;-83
2022/03/02 06:14:04;;;;;;;;;;;;;;;-2.86;100.00;99237.03;10240170;28;19930;-78
2022/03/02 06:19:06;;;;;;;;;;;;;;;-2.88;100.00;99239.88;10237994;28;20408;-77
2022/03/02 06:24:09;;;;;;;;;;;;;;;-2.77;100.00;99246.25;10288282;28;20385;-77
2022/03/02 06:29:16;;;;;;;;;;;;;;;-2.67;100.00;99232.66;10301041;28;19989;-81
2022/03/02 06:34:18;;;;;;;;;;;;;;;-2.71;100.00;99240.16;10306104;28;19930;-81
2022/03/02 06:39:22;;;;;;;;;;;;;;;-2.58;100.00;99234.81;10238909;28;20386;-81
2022/03/02 06:44:26;;;;;;;;;;;;;;;-2.43;100.00;99225.81;10296104;28;19980;-80
2022/03/02 06:49:30;;;;;;;;;;;;;;;-2.68;100.00;99217.91;10316448;28;19925;-78
2022/03/02 06:54:32;;;;;;;;;;;;;;;-2.62;100.00;99215.25;10319519;28;19927;-79
2022/03/02 06:59:40;;;;;;;;;;;;;;;-2.41;100.00;99213.25;10329031;28;19937;-79
2022/03/02 07:04:42;;;;;;;;;;;;;;;-2.11;100.00;99223.88;10316474;28;20048;-78
2022/03/02 07:09:44;;;;;;;;;;;;;;;-1.98;100.00;99229.03;10332804;28;19929;-78
2022/03/02 07:14:45;;;;;;;;;;;;;;;-1.73;100.00;99237.69;10275224;28;20689;-77
2022/03/02 07:19:47;;;;;;;;;;;;;;;-1.55;100.00;99231.59;10285406;28;19926;-80
2022/03/02 07:24:51;;;;;;;;;;;;;;;-1.49;100.00;99225.44;10297482;28;19941;-77
2022/03/02 07:29:55;;;;;;;;;;;;;;;-1.58;100.00;99218.88;10280189;28;19994;-79
2022/03/02 07:34:58;;;;;;;;;;;;;;;-1.41;100.00;99223.53;10295036;28;19966;-79
2022/03/02 07:39:59;;;;;;;;;;;;;;;-1.51;100.00;99205.63;10293340;28;19934;-85
2022/03/02 07:45:00;;;;;;;;;;;;;;;-1.09;100.00;99221.50;10309235;28;19914;-75
2022/03/02 07:50:00;;;;;;;;;;;;;;;-0.99;100.00;99217.31;10302249;28;19914;-80
2022/03/02 07:55:07;;;;;;;;;;;;;;;-0.77;100.00;99208.88;10325825;28;19962;-79
2022/03/02 08:00:09;;;;;;;;;;;;;;;-0.77;100.00;99211.50;10311773;28;19930;-78
2022/03/02 08:05:13;;;;;;;;;;;;;;;-0.36;100.00;99221.22;10309543;28;19944;-79
2022/03/02 08:10:15;;;;;;;;;;;;;;;-0.17;100.00;99216.63;10358071;28;19918;-79
2022/03/02 08:15:16;;;;;;;;;;;;;;;-0.23;100.00;99214.88;10298675;28;19953;-78
2022/03/02 08:20:16;;;;;;;;;;;;;;;0.07;100.00;99212.91;10281672;28;19934;-80
2022/03/02 08:25:21;;;;;;;;;;;;;;;0.30;100.00;99211.28;10299979;28;19926;-77
2022/03/02 08:30:21;;;;;;;;;;;;;;;0.06;100.00;99200.75;10274320;28;19934;-77
2022/03/02 08:35:22;;;;;;;;;;;;;;;0.58;100.00;99195.47;10318487;28;19925;-77
2022/03/02 08:40:23;;;;;;;;;;;;;;;0.91;100.00;99188.66;10328975;28;19926;-78
2022/03/02 08:45:26;;;;;;;;;;;;;;;0.69;100.00;99177.97;10291692;28;19934;-77
2022/03/02 08:50:28;;;;;;;;;;;;;;;0.99;100.00;99185.66;10300148;28;19937;-81
2022/03/02 08:55:30;;;;;;;;;;;;;;;1.26;100.00;99162.84;10342654;28;19929;-77
2022/03/02 09:00:33;;;;;;;;;;;;;;;1.59;100.00;99164.69;10330205;28;20024;-78
2022/03/02 09:05:34;;;;;;;;;;;;;;;1.64;100.00;99161.28;10285003;28;20021;-77
2022/03/02 09:10:37;;;;;;;;;;;;;;;2.10;100.00;99175.16;10281132;28;20530;-79
2022/03/02 09:15:38;;;;;;;;;;;;;;;1.57;99.44;99171.25;10281408;28;20417;-78
2022/03/02 09:20:40;;;;;;;;;;;;;;;1.78;100.00;99161.75;10277307;28;19965;-77
2022/03/02 09:25:42;;;;;;;;;;;;;;;1.95;96.95;99165.97;10263556;28;19934;-77
2022/03/02 09:30:45;;;;;;;;;;;;;;;2.12;99.39;99157.19;10280346;28;19938;-78
2022/03/02 09:35:45;;;;;;;;;;;;;;;2.27;98.28;99155.50;10280064;28;19942;-76
2022/03/02 09:40:48;;;;;;;;;;;;;;;2.56;96.20;99150.00;10288176;28;19981;-77
2022/03/02 09:45:52;;;;;;;;;;;;;;;2.91;91.46;99149.56;10290192;28;20374;-79
2022/03/02 09:50:56;;;;;;;;;;;;;;;3.28;92.49;99152.25;10285025;28;19930;-78
2022/03/02 09:56:03;;;;;;;;;;;;;;;3.31;88.24;99150.97;10264508;28;19954;-76
2022/03/02 10:01:08;;;;;;;;;;;;;;;3.17;87.38;99145.28;10256894;28;19963;-78
2022/03/02 10:06:11;;;;;;;;;;;;;;;3.52;86.70;99143.94;10265104;28;19934;-77
2022/03/02 10:11:14;;;;;;;;;;;;;;;3.99;85.08;99139.44;10288074;28;19926;-78
2022/03/02 10:16:27;;;;;;;;;;;;;;;3.58;80.47;99138.44;10281475;28;19941;-77
2022/03/02 10:21:31;;;;;;;;;;;;;;;3.99;80.98;99131.47;10258630;28;20390;-77
2022/03/02 10:26:34;;;;;;;;;;;;;;;3.83;76.71;99137.75;10279526;28;20419;-77
2022/03/02 10:31:41;;;;;;;;;;;;;;;4.52;78.82;99142.84;10280718;28;19934;-77
2022/03/02 10:36:42;;;;;;;;;;;;;;;4.98;77.02;99147.44;10278752;28;19989;-77
2022/03/02 10:41:43;;;;;;;;;;;;;;;4.92;78.38;99146.63;10280556;28;20665;-78
2022/03/02 10:46:46;;;;;;;;;;;;;;;5.12;79.71;99137.88;10257601;28;20021;-78
2022/03/02 10:51:47;;;;;;;;;;;;;;;5.13;80.16;99126.19;10277108;28;19926;-78
2022/03/02 10:56:49;;;;;;;;;;;;;;;5.31;80.14;99117.66;10277592;28;19937;-78
2022/03/02 11:01:50;;;;;;;;;;;;;;;5.00;75.09;99105.41;10287093;28;19934;-79
2022/03/02 11:06:52;;;;;;;;;;;;;;;4.63;78.17;99100.31;10278140;28;20321;-79
2022/03/02 11:11:56;;;;;;;;;;;;;;;4.51;76.17;99088.09;10289206;28;19934;-78
2022/03/02 11:17:13;;;;;;;;;;;;;;;5.25;74.17;99081.47;10277187;28;20001;-78
2022/03/02 11:22:20;;;;;;;;;;;;;;;5.43;76.11;99083.56;10267824;28;20733;-77
2022/03/02 11:27:27;;;;;;;;;;;;;;;5.50;78.02;99085.97;10284296;28;19934;-77
2022/03/02 11:32:32;;;;;;;;;;;;;;;5.83;70.80;99079.19;10276269;28;20270;-79
2022/03/02 11:37:33;;;;;;;;;;;;;;;5.13;74.55;99060.47;10285317;28;20001;-79
2022/03/02 11:42:35;;;;;;;;;;;;;;;5.75;71.42;99047.00;10287324;28;20333;-76
2022/03/02 11:47:55;;;;;;;;;;;;;;;5.67;71.87;99051.84;10300472;28;19934;-77
2022/03/02 11:52:56;;;;;;;;;;;;;;;6.18;68.97;99045.50;10294730;28;19934;-78
2022/03/02 11:57:57;;;;;;;;;;;;;;;6.14;72.32;99039.16;10339857;28;19921;-79
2022/03/02 12:02:58;;;;;;;;;;;;;;;6.60;69.13;99038.84;10342462;28;19916;-77
2022/03/02 12:08:04;;;;;;;;;;;;;;;6.58;66.18;99031.09;10328052;28;19921;-78
2022/03/02 12:13:05;;;;;;;;;;;;;;;6.76;60.33;99024.31;10297665;28;19970;-80
2022/03/02 12:18:09;;;;;;;;;;;;;;;6.79;61.68;99021.09;10298120;28;19970;-77
2022/03/02 12:23:09;;;;;;;;;;;;;;;6.98;58.53;99016.66;10264815;28;19934;-77
2022/03/02 12:28:12;;;;;;;;;;;;;;;6.68;53.54;99020.38;10279137;28;19989;-79
2022/03/02 12:33:16;;;;;;;;;;;;;;;7.05;52.71;99005.66;10296694;28;19934;-77
2022/03/02 12:38:18;;;;;;;;;;;;;;;6.90;48.91;98993.25;10269668;28;19936;-77
2022/03/02 12:43:19;;;;;;;;;;;;;;;7.09;51.68;98993.34;10268083;28;20024;-78
2022/03/02 12:48:21;;;;;;;;;;;;;;;6.74;48.61;98983.78;10245784;28;19978;-79
2022/03/02 12:53:22;;;;;;;;;;;;;;;6.98;49.22;98976.63;10263697;28;19937;-78
2022/03/02 12:58:23;;;;;;;;;;;;;;;7.20;46.88;98970.00;10322372;28;19934;-81
2022/03/02 13:03:27;;;;;;;;;;;;;;;6.78;46.15;98974.94;10329830;28;19914;-78
2022/03/02 13:08:43;;;;;;;;;;;;;;;7.03;46.55;98965.88;10340204;28;19973;-78
2022/03/02 13:13:43;;;;;;;;;;;;;;;7.38;44.68;98967.38;10266795;28;19930;-78
2022/03/02 13:18:44;;;;;;;;;;;;;;;7.81;43.52;98966.63;10274346;28;19934;-78
2022/03/02 13:24:04;;;;;;;;;;;;;;;8.27;44.05;98959.53;10280847;28;20442;-80
2022/03/02 13:29:12;;;;;;;;;;;;;;;8.59;41.37;98949.16;10289310;28;19964;-79
2022/03/02 13:34:16;;;;;;;;;;;;;;;8.73;38.60;98940.09;10302189;28;19930;-79
2022/03/02 13:39:27;;;;;;;;;;;;;;;8.68;36.87;98926.78;10304814;28;19930;-78
2022/03/02 13:44:29;;;;;;;;;;;;;;;8.14;38.07;98930.06;10271446;28;19930;-79
2022/03/02 13:49:53;;;;;;;;;;;;;;;8.21;36.63;98928.59;10282337;28;20370;-79
2022/03/02 13:54:55;;;;;;;;;;;;;;;7.64;39.40;98922.47;10273453;28;19930;-77
2022/03/02 14:00:14;;;;;;;;;;;;;;;7.56;39.60;98909.75;10257623;28;19934;-77
2022/03/02 14:05:17;;;;;;;;;;;;;;;7.63;41.36;98906.72;10286465;28;19937;-77
2022/03/02 14:10:19;;;;;;;;;;;;;;;7.66;42.98;98903.47;10255943;28;20029;-78
2022/03/02 14:15:21;;;;;;;;;;;;;;;8.08;40.30;98907.94;10275949;28;19930;-78
2022/03/02 14:20:25;;;;;;;;;;;;;;;7.96;41.98;98905.72;10286435;28;20002;-78
2022/03/02 14:25:27;;;;;;;;;;;;;;;7.41;39.57;98894.72;10319752;28;20454;-79
2022/03/02 14:30:31;;;;;;;;;;;;;;;7.40;43.21;98900.34;10288081;28;19934;-79
2022/03/02 14:35:32;;;;;;;;;;;;;;;7.46;40.99;98896.53;10287428;28;20703;-79
2022/03/02 14:40:33;;;;;;;;;;;;;;;7.24;39.96;98893.63;10283926;28;19961;-80
2022/03/02 14:45:41;;;;;;;;;;;;;;;7.05;41.47;98891.69;10337306;28;19937;-79
2022/03/02 14:50:45;;;;;;;;;;;;;;;7.18;43.74;98876.06;10296103;28;19937;-78
2022/03/02 14:55:45;;;;;;;;;;;;;;;7.16;38.63;98883.56;10290929;28;19930;-81
2022/03/02 15:00:54;;;;;;;;;;;;;;;7.16;37.73;98876.34;10308287;28;19981;-79
2022/03/02 15:05:57;;;;;;;;;;;;;;;7.09;35.68;98884.69;10316623;28;19914;-79
2022/03/02 15:11:13;;;;;;;;;;;;;;;7.32;40.90;98885.75;10318727;28;19937;-77
2022/03/02 15:16:14;;;;;;;;;;;;;;;7.43;35.05;98877.63;10286394;28;20009;-80
2022/03/02 15:21:14;;;;;;;;;;;;;;;7.29;34.35;98877.50;10290000;28;20012;-78
2022/03/02 15:26:17;;;;;;;;;;;;;;;7.59;38.86;98884.31;10303828;28;20445;-77
2022/03/02 15:31:18;;;;;;;;;;;;;;;7.44;34.20;98877.34;10306407;28;20429;-80
2022/03/02 15:36:18;;;;;;;;;;;;;;;7.52;37.33;98859.88;10259437;28;19926;-79
2022/03/02 15:41:20;;;;;;;;;;;;;;;7.29;34.81;98850.81;10301009;28;20393;-80
2022/03/02 15:46:20;;;;;;;;;;;;;;;7.00;33.83;98850.91;10319099;28;19941;-77
2022/03/02 15:51:22;;;;;;;;;;;;;;;7.16;34.15;98846.97;10314874;28;20280;-77
2022/03/02 15:56:22;;;;;;;;;;;;;;;6.86;33.22;98842.81;10299028;28;19941;-79
2022/03/02 16:01:27;;;;;;;;;;;;;;;6.90;34.33;98851.03;10279977;28;19930;-78
2022/03/02 16:06:28;;;;;;;;;;;;;;;6.82;36.42;98852.44;10277158;28;19930;-79
2022/03/02 16:11:34;;;;;;;;;;;;;;;6.79;37.89;98847.69;10301301;28;20676;-78
2022/03/02 16:16:36;;;;;;;;;;;;;;;6.62;41.29;98856.13;10333701;28;19949;-79
2022/03/02 16:21:40;;;;;;;;;;;;;;;6.55;39.29;98853.00;10330517;28;19921;-78
2022/03/02 16:26:44;;;;;;;;;;;;;;;6.35;40.34;98854.00;10324689;28;19941;-78
2022/03/02 16:31:45;;;;;;;;;;;;;;;6.15;39.29;98854.97;10314666;28;19984;-79
2022/03/02 16:36:46;;;;;;;;;;;;;;;6.01;39.80;98858.53;10304948;28;19934;-78
2022/03/02 16:41:46;;;;;;;;;;;;;;;5.66;40.40;98853.16;10292664;28;19930;-78
2022/03/02 16:46:47;;;;;;;;;;;;;;;5.53;42.17;98852.97;10294564;28;19931;-80
2022/03/02 16:51:48;;;;;;;;;;;;;;;5.35;42.13;98851.75;10289427;23;19931;-79
2022/03/02 16:56:52;;;;;;;;;;;;;;;5.14;40.22;98856.38;10189232;28;19916;-80
2022/03/02 17:01:56;;;;;;;;;;;;;;;4.99;40.60;98857.22;10235057;28;19938;-79
2022/03/02 17:06:57;;;;;;;;;;;;;;;4.84;40.98;98862.59;10169308;28;19974;-79
2022/03/02 17:11:59;;;;;;;;;;;;;;;4.61;42.51;98869.31;10180096;28;19928;-79
2022/03/02 17:17:00;;;;;;;;;;;;;;;4.46;42.60;98854.16;10174651;28;20318;-79
2022/03/02 17:22:01;;;;;;;;;;;;;;;4.32;42.49;98857.66;10331597;28;19934;-77
2022/03/02 17:27:05;;;;;;;;;;;;;;;4.04;43.58;98873.06;10341522;28;19929;-78
2022/03/02 17:32:06;;;;;;;;;;;;;;;3.79;45.66;98867.75;10340147;28;19936;-77
2022/03/02 17:37:09;;;;;;;;;;;;;;;3.45;50.25;98870.06;10324094;28;19932;-80
2022/03/02 17:42:10;;;;;;;;;;;;;;;3.08;53.96;98871.78;10329635;28;19937;-79
2022/03/02 17:47:16;;;;;;;;;;;;;;;2.79;56.91;98863.44;10325620;28;19929;-79
2022/03/02 17:52:16;;;;;;;;;;;;;;;2.45;61.02;98864.81;10293461;28;19926;-78
2022/03/02 17:57:19;;;;;;;;;;;;;;;2.25;56.81;98868.94;10266344;28;20464;-77
2022/03/02 18:02:21;;;;;;;;;;;;;;;2.05;61.35;98867.97;10306548;28;19965;-81
2022/03/02 18:07:23;;;;;;;;;;;;;;;1.82;63.52;98875.19;10307131;28;19937;-78
2022/03/02 18:12:27;;;;;;;;;;;;;;;1.64;61.48;98870.25;10312737;28;19936;-78
2022/03/02 18:17:28;;;;;;;;;;;;;;;1.48;68.40;98869.31;10305561;28;19930;-77
2022/03/02 18:22:29;;;;;;;;;;;;;;;1.26;66.05;98871.19;10309211;28;20020;-79
2022/03/02 18:27:29;;;;;;;;;;;;;;;1.05;73.83;98870.16;10335902;28;19938;-77
2022/03/02 18:32:30;;;;;;;;;;;;;;;0.84;73.32;98856.69;10325262;28;19930;-77
2022/03/02 18:37:31;;;;;;;;;;;;;;;0.62;75.58;98855.84;10339692;28;20076;-78
2022/03/02 18:42:34;;;;;;;;;;;;;;;0.45;80.71;98863.81;10322633;28;19933;-78
2022/03/02 18:47:35;;;;;;;;;;;;;;;0.23;82.17;98857.69;10333230;28;19968;-78
2022/03/02 18:52:40;;;;;;;;;;;;;;;0.04;85.03;98846.56;10337836;28;19959;-78
2022/03/02 18:57:43;;;;;;;;;;;;;;;-0.09;90.91;98852.16;10322872;28;19957;-77
2022/03/02 19:02:45;;;;;;;;;;;;;;;-0.23;95.33;98845.59;10337311;28;19933;-81
2022/03/02 19:07:45;;;;;;;;;;;;;;;-0.35;94.55;98848.31;10342935;28;19932;-80
2022/03/02 19:12:47;;;;;;;;;;;;;;;-0.49;96.56;98854.91;10339498;28;19982;-78
2022/03/02 19:17:48;;;;;;;;;;;;;;;-0.59;100.00;98864.22;10338318;28;20004;-78
2022/03/02 19:22:53;;;;;;;;;;;;;;;-0.71;100.00;98855.59;10345717;28;19914;-81
2022/03/02 19:27:55;;;;;;;;;;;;;;;-0.84;100.00;98857.69;10344470;28;19934;-79
2022/03/02 19:32:56;;;;;;;;;;;;;;;-1.01;100.00;98857.59;10348622;28;19924;-79
2022/03/02 19:43:48;;;;;;;;;;;;;;;-1.32;100.00;98866.72;10341218;28;19914;-77
2022/03/02 19:48:49;;;;;;;;;;;;;;;-1.32;100.00;98858.84;10349937;28;19936;-77
2022/03/02 19:53:52;;;;;;;;;;;;;;;-1.57;100.00;98870.41;10316195;28;19925;-77
2022/03/02 19:58:58;;;;;;;;;;;;;;;-1.65;100.00;98869.94;10341159;28;19933;-80
2022/03/02 20:04:01;;;;;;;;;;;;;;;-1.61;100.00;98873.72;10348200;28;19965;-79
2022/03/02 20:09:07;;;;;;;;;;;;;;;-1.51;100.00;98874.75;10358525;28;19929;-80
2022/03/02 20:14:08;;;;;;;;;;;;;;;-1.36;100.00;98871.66;10335545;28;20020;-79
2022/03/02 20:19:10;;;;;;;;;;;;;;;-1.48;100.00;98876.91;10301476;28;20393;-81
2022/03/02 20:24:12;;;;;;;;;;;;;;;-1.61;100.00;98879.78;10322824;28;19930;-78
2022/03/02 20:29:12;;;;;;;;;;;;;;;-1.72;100.00;98878.78;10315327;28;20017;-79
2022/03/02 20:34:21;;;;;;;;;;;;;;;-1.81;100.00;98880.13;10357099;28;19924;-82
2022/03/02 20:39:23;;;;;;;;;;;;;;;-1.89;100.00;98877.84;10340595;28;19973;-81
2022/03/02 20:44:26;;;;;;;;;;;;;;;-2.04;100.00;98880.09;10320040;28;19930;-78
2022/03/02 20:49:28;;;;;;;;;;;;;;;-2.12;100.00;98877.78;10362026;28;19926;-78
2022/03/02 20:54:30;;;;;;;;;;;;;;;-2.24;100.00;98867.25;10278421;28;19936;-77
2022/03/02 20:59:31;;;;;;;;;;;;;;;-2.22;100.00;98873.06;10349986;28;19933;-78
2022/03/02 21:04:32;;;;;;;;;;;;;;;-2.34;100.00;98862.53;10317626;28;19976;-76
2022/03/02 21:09:33;;;;;;;;;;;;;;;-2.33;100.00;98851.00;10328070;28;19929;-76
2022/03/02 21:14:34;;;;;;;;;;;;;;;-2.40;100.00;98839.78;10331658;28;19926;-77
2022/03/02 21:19:35;;;;;;;;;;;;;;;-2.34;100.00;98840.72;10313433;28;19932;-77
2022/03/02 21:24:35;;;;;;;;;;;;;;;-2.47;100.00;98857.50;10375564;28;19957;-77
2022/03/02 21:29:37;;;;;;;;;;;;;;;-2.50;100.00;98865.81;10338524;28;19933;-78
2022/03/02 21:34:40;;;;;;;;;;;;;;;-2.37;100.00;98868.25;10324590;28;19937;-80
2022/03/02 21:39:47;;;;;;;;;;;;;;;-2.36;100.00;98872.50;10299063;28;19936;-77
2022/03/02 21:44:49;;;;;;;;;;;;;;;-2.52;100.00;98877.56;10325974;28;19926;-77
2022/03/02 21:49:53;;;;;;;;;;;;;;;-2.53;100.00;98866.25;10329163;28;20352;-77
2022/03/02 21:54:53;;;;;;;;;;;;;;;-2.60;100.00;98855.84;10325972;28;19951;-78
2022/03/02 21:59:57;;;;;;;;;;;;;;;-2.70;100.00;98857.41;10318193;28;20020;-80
2022/03/02 22:04:58;;;;;;;;;;;;;;;-2.75;100.00;98849.38;10308490;28;20016;-80
2022/03/02 22:10:02;;;;;;;;;;;;;;;-2.94;100.00;98859.09;10359822;28;19930;-78
2022/03/02 22:15:05;;;;;;;;;;;;;;;-2.80;100.00;98850.06;10354918;28;19934;-78
2022/03/02 22:20:08;;;;;;;;;;;;;;;-2.97;100.00;98846.44;10368646;28;20765;-79
2022/03/02 22:25:12;;;;;;;;;;;;;;;-2.95;100.00;98841.75;10357079;28;19929;-78
2022/03/02 22:30:13;;;;;;;;;;;;;;;-3.22;100.00;98843.88;10342485;28;20965;-77
2022/03/02 22:35:14;;;;;;;;;;;;;;;-3.27;100.00;98847.19;10331781;28;19929;-80
2022/03/02 22:40:18;;;;;;;;;;;;;;;-3.31;100.00;98851.25;10329895;28;19929;-77
2022/03/02 22:45:19;;;;;;;;;;;;;;;-3.20;100.00;98845.28;10339414;28;19926;-77
2022/03/02 22:50:20;;;;;;;;;;;;;;;-3.16;100.00;98840.41;10306860;28;20016;-77
2022/03/02 22:55:20;;;;;;;;;;;;;;;-3.34;100.00;98845.66;10361178;28;21051;-80
2022/03/02 23:00:27;;;;;;;;;;;;;;;-3.23;100.00;98827.34;10340792;28;19929;-77
2022/03/02 23:16:06;;;;;;;;;;;;;;;-3.38;100.00;98836.59;10360526;28;20016;-77
2022/03/02 23:21:06;;;;;;;;;;;;;;;-3.53;100.00;98836.97;10325834;28;20012;-80
2022/03/02 23:26:08;;;;;;;;;;;;;;;-3.58;100.00;98829.75;10368713;28;20400;-80
2022/03/02 23:31:09;;;;;;;;;;;;;;;-3.57;100.00;98825.28;10314423;28;20369;-77
2022/03/02 23:36:12;;;;;;;;;;;;;;;-3.74;100.00;98825.09;10362079;28;20376;-77
2022/03/02 23:41:17;;;;;;;;;;;;;;;-3.80;100.00;98826.75;10337395;28;19933;-77
2022/03/02 23:46:18;;;;;;;;;;;;;;;-3.86;100.00;98817.09;10350762;28;19929;-79
2022/03/02 23:51:18;;;;;;;;;;;;;;;-3.88;100.00;98815.72;10334629;28;19935;-79
2022/03/02 23:56:19;;;;;;;;;;;;;;;-4.00;100.00;98818.25;10248881;28;19931;-76
